createdAt,value
2018-03-02T00:00:18.330Z,12.00
2018-03-02T00:01:18.379Z,11.60
2018-03-02T00:02:18.328Z,9.70
2018-03-02T00:03:18.334Z,10.40
2018-03-02T00:04:18.330Z,11.90
2018-03-02T00:05:18.331Z,11.30
2018-03-02T00:06:18.333Z,11.30
2018-03-02T00:07:18.328Z,10.90
2018-03-02T00:08:18.332Z,11.30
2018-03-02T00:09:18.322Z,10.90
2018-03-02T00:10:18.323Z,10.10
2018-03-02T00:11:18.371Z,11.30
2018-03-02T00:12:18.326Z,10.30
2018-03-02T00:13:18.333Z,10.30
2018-03-02T00:14:18.324Z,11.10
2018-03-02T00:15:18.334Z,11.50
2018-03-02T00:16:18.329Z,11.20
2018-03-02T00:17:18.326Z,10.90
2018-03-02T00:18:18.326Z,10.80
2018-03-02T00:19:18.348Z,9.40
2018-03-02T00:20:18.346Z,10.10
2018-03-02T00:21:18.386Z,9.80
2018-03-02T00:22:18.321Z,10.80
2018-03-02T00:23:18.316Z,10.60
2018-03-02T00:24:18.321Z,11.30
2018-03-02T00:25:18.334Z,11.20
2018-03-02T00:26:18.326Z,10.20
2018-03-02T00:27:18.380Z,10.70
2018-03-02T00:28:18.326Z,9.70
2018-03-02T00:29:18.318Z,10.50
2018-03-02T00:30:18.323Z,10.60
2018-03-02T00:31:18.311Z,11.60
2018-03-02T00:32:18.342Z,11.90
2018-03-02T00:33:18.327Z,10.90
2018-03-02T00:34:18.324Z,10.90
2018-03-02T00:35:18.304Z,10.80
2018-03-02T00:36:18.314Z,11.80
2018-03-02T00:37:18.316Z,12.60
2018-03-02T00:38:18.320Z,11.80
2018-03-02T00:39:18.313Z,11.40
2018-03-02T00:40:18.368Z,12.10
2018-03-02T00:41:18.315Z,13.20
2018-03-02T00:42:18.316Z,11.50
2018-03-02T00:43:18.315Z,12.00
2018-03-02T00:44:18.311Z,12.10
2018-03-02T00:45:18.318Z,12.40
2018-03-02T00:46:18.312Z,13.00
2018-03-02T00:47:18.309Z,11.90
2018-03-02T00:48:18.313Z,11.80
2018-03-02T00:49:18.302Z,10.20
2018-03-02T00:50:18.305Z,12.60
2018-03-02T00:51:18.305Z,10.90
2018-03-02T00:52:18.308Z,11.90
2018-03-02T00:53:18.323Z,10.90
2018-03-02T00:54:18.325Z,11.70
2018-03-02T00:55:18.324Z,12.20
2018-03-02T00:56:18.300Z,12.70
2018-03-02T00:57:18.306Z,12.00
2018-03-02T00:58:18.314Z,10.80
2018-03-02T00:59:18.320Z,12.80
2018-03-02T01:00:18.303Z,12.70
2018-03-02T01:01:18.316Z,12.80
2018-03-02T01:02:18.297Z,12.50
2018-03-02T01:03:18.292Z,12.80
2018-03-02T01:04:18.298Z,12.60
2018-03-02T01:05:18.297Z,12.20
2018-03-02T01:06:18.303Z,13.00
2018-03-02T01:07:18.304Z,10.90
2018-03-02T01:08:18.316Z,12.10
2018-03-02T01:09:18.300Z,12.10
2018-03-02T01:10:18.299Z,11.90
2018-03-02T01:11:18.385Z,13.00
2018-03-02T01:12:18.319Z,11.50
2018-03-02T01:13:18.283Z,12.40
2018-03-02T01:14:18.310Z,13.20
2018-03-02T01:15:18.326Z,13.20
2018-03-02T01:16:18.288Z,10.50
2018-03-02T01:17:18.338Z,12.80
2018-03-02T01:18:18.303Z,13.00
2018-03-02T01:19:18.297Z,11.10
2018-03-02T01:20:18.287Z,13.10
2018-03-02T01:21:18.296Z,12.70
2018-03-02T01:22:18.312Z,12.70
2018-03-02T01:23:18.291Z,13.70
2018-03-02T01:24:18.291Z,12.50
2018-03-02T01:25:18.289Z,11.60
2018-03-02T01:26:18.292Z,13.30
2018-03-02T01:27:18.307Z,12.90
2018-03-02T01:28:18.319Z,13.10
2018-03-02T01:29:18.278Z,11.40
2018-03-02T01:30:18.297Z,12.80
2018-03-02T01:31:18.303Z,12.00
2018-03-02T01:32:18.289Z,13.40
2018-03-02T01:33:18.290Z,13.70
2018-03-02T01:34:18.344Z,13.50
2018-03-02T01:35:18.286Z,12.70
2018-03-02T01:36:18.295Z,13.80
2018-03-02T01:37:18.290Z,11.60
2018-03-02T01:38:18.288Z,11.90
2018-03-02T01:39:18.287Z,13.90
2018-03-02T01:40:18.295Z,13.60
2018-03-02T01:41:18.278Z,13.70
2018-03-02T01:42:18.305Z,13.00
2018-03-02T01:43:18.299Z,12.70
2018-03-02T01:44:18.273Z,13.40
2018-03-02T01:45:18.294Z,12.00
2018-03-02T01:46:18.283Z,13.40
2018-03-02T01:47:18.277Z,13.60
2018-03-02T01:48:18.279Z,14.40
2018-03-02T01:49:18.273Z,12.90
2018-03-02T01:50:18.296Z,12.10
2018-03-02T01:51:18.270Z,14.10
2018-03-02T01:52:18.311Z,12.80
2018-03-02T01:53:18.279Z,13.30
2018-03-02T01:54:18.280Z,14.40
2018-03-02T01:55:18.278Z,14.70
2018-03-02T01:56:18.280Z,13.00
2018-03-02T01:57:18.259Z,13.60
2018-03-02T01:58:18.295Z,14.70
2018-03-02T01:59:18.271Z,14.40
2018-03-02T02:00:18.269Z,13.30
2018-03-02T02:01:18.255Z,14.00
2018-03-02T02:02:18.264Z,14.70
2018-03-02T02:03:18.282Z,11.80
2018-03-02T02:04:18.263Z,14.70
2018-03-02T02:05:18.279Z,16.00
2018-03-02T02:06:18.281Z,15.60
2018-03-02T02:07:18.259Z,15.10
2018-03-02T02:08:18.254Z,14.80
2018-03-02T02:09:18.272Z,13.90
2018-03-02T02:10:18.259Z,13.60
2018-03-02T02:11:18.268Z,14.80
2018-03-02T02:12:18.281Z,15.10
2018-03-02T02:13:18.268Z,16.10
2018-03-02T02:14:18.255Z,15.00
2018-03-02T02:15:18.264Z,14.10
2018-03-02T02:16:18.251Z,14.70
2018-03-02T02:17:18.257Z,15.20
2018-03-02T02:18:18.261Z,16.90
2018-03-02T02:19:18.255Z,15.50
2018-03-02T02:20:18.250Z,16.00
2018-03-02T02:21:18.245Z,15.50
2018-03-02T02:22:18.252Z,15.90
2018-03-02T02:23:18.267Z,15.20
2018-03-02T02:24:18.273Z,14.00
2018-03-02T02:25:18.274Z,15.20
2018-03-02T02:26:18.242Z,16.60
2018-03-02T02:27:18.239Z,15.40
2018-03-02T02:28:18.247Z,16.30
2018-03-02T02:29:18.251Z,16.00
2018-03-02T02:30:18.247Z,15.40
2018-03-02T02:31:18.256Z,15.70
2018-03-02T02:32:18.240Z,15.60
2018-03-02T02:33:18.250Z,17.20
2018-03-02T02:34:18.241Z,16.00
2018-03-02T02:35:18.250Z,16.10
2018-03-02T02:36:18.242Z,15.80
2018-03-02T02:37:18.241Z,13.90
2018-03-02T02:38:18.276Z,13.00
2018-03-02T02:39:18.235Z,15.60
2018-03-02T02:40:18.255Z,17.10
2018-03-02T02:41:18.241Z,16.00
2018-03-02T02:42:18.283Z,13.60
2018-03-02T02:43:18.231Z,16.40
2018-03-02T02:44:18.243Z,16.00
2018-03-02T02:45:18.236Z,16.90
2018-03-02T02:46:18.235Z,16.30
2018-03-02T02:47:18.229Z,16.30
2018-03-02T02:48:18.224Z,16.50
2018-03-02T02:49:18.240Z,14.80
2018-03-02T02:50:18.250Z,15.10
2018-03-02T02:51:18.236Z,15.30
2018-03-02T02:52:18.224Z,16.90
2018-03-02T02:53:18.220Z,16.60
2018-03-02T02:54:18.227Z,15.50
2018-03-02T02:55:18.278Z,15.60
2018-03-02T02:56:18.225Z,15.00
2018-03-02T02:57:18.269Z,16.50
2018-03-02T02:58:18.236Z,15.80
2018-03-02T02:59:18.241Z,17.40
2018-03-02T03:00:18.214Z,17.60
2018-03-02T03:01:18.222Z,17.50
2018-03-02T03:02:18.224Z,17.20
2018-03-02T03:03:18.220Z,17.20
2018-03-02T03:04:18.222Z,17.20
2018-03-02T03:05:18.227Z,17.60
2018-03-02T03:06:18.210Z,16.30
2018-03-02T03:07:18.213Z,17.20
2018-03-02T03:08:18.235Z,16.80
2018-03-02T03:09:18.223Z,16.80
2018-03-02T03:10:18.235Z,17.10
2018-03-02T03:11:18.237Z,17.40
2018-03-02T03:12:18.206Z,15.10
2018-03-02T03:13:18.204Z,15.00
2018-03-02T03:14:18.200Z,16.40
2018-03-02T03:15:18.221Z,13.90
2018-03-02T03:16:18.221Z,15.50
2018-03-02T03:17:18.216Z,16.30
2018-03-02T03:18:18.227Z,16.70
2018-03-02T03:19:18.201Z,16.30
2018-03-02T03:20:18.200Z,17.60
2018-03-02T03:21:18.202Z,16.40
2018-03-02T03:22:18.215Z,16.40
2018-03-02T03:23:18.203Z,17.40
2018-03-02T03:24:18.197Z,14.30
2018-03-02T03:25:18.211Z,16.90
2018-03-02T03:26:18.212Z,18.50
2018-03-02T03:27:18.193Z,17.40
2018-03-02T03:28:18.208Z,17.40
2018-03-02T03:29:18.194Z,17.40
2018-03-02T03:30:18.199Z,15.90
2018-03-02T03:31:18.197Z,17.80
2018-03-02T03:32:18.194Z,17.30
2018-03-02T03:33:18.193Z,18.40
2018-03-02T03:34:18.187Z,18.60
2018-03-02T03:35:18.185Z,17.10
2018-03-02T03:36:18.219Z,17.70
2018-03-02T03:37:18.211Z,17.50
2018-03-02T03:38:18.190Z,16.50
2018-03-02T03:39:18.227Z,16.70
2018-03-02T03:40:18.183Z,18.10
2018-03-02T03:41:18.193Z,17.30
2018-03-02T03:42:18.256Z,16.50
2018-03-02T03:43:18.175Z,15.70
2018-03-02T03:44:18.176Z,17.60
2018-03-02T03:45:18.184Z,17.80
2018-03-02T03:46:18.191Z,16.90
2018-03-02T03:47:18.182Z,15.00
2018-03-02T03:48:18.182Z,17.80
2018-03-02T03:49:18.188Z,18.20
2018-03-02T03:50:18.166Z,17.50
2018-03-02T03:51:18.201Z,15.90
2018-03-02T03:52:18.215Z,18.00
2018-03-02T03:53:18.179Z,18.10
2018-03-02T03:54:18.183Z,17.10
2018-03-02T03:55:18.163Z,19.40
2018-03-02T03:56:18.161Z,17.20
2018-03-02T03:57:18.159Z,17.00
2018-03-02T03:58:18.163Z,18.40
2018-03-02T03:59:18.195Z,17.40
2018-03-02T04:00:18.163Z,17.20
2018-03-02T04:01:18.155Z,17.40
2018-03-02T04:02:18.160Z,18.60
2018-03-02T04:03:18.161Z,15.50
2018-03-02T04:04:18.166Z,13.10
2018-03-02T04:05:18.154Z,14.60
2018-03-02T04:06:18.147Z,17.60
2018-03-02T04:07:18.157Z,17.60
2018-03-02T04:08:18.151Z,17.80
2018-03-02T04:09:18.158Z,16.80
2018-03-02T04:10:18.214Z,17.30
2018-03-02T04:11:18.156Z,17.10
2018-03-02T04:12:18.150Z,18.20
2018-03-02T04:13:18.180Z,19.70
2018-03-02T04:14:18.159Z,18.40
2018-03-02T04:15:18.139Z,18.50
2018-03-02T04:16:18.153Z,18.40
2018-03-02T04:17:18.150Z,18.50
2018-03-02T04:18:18.141Z,19.30
2018-03-02T04:19:18.138Z,17.90
2018-03-02T04:20:18.148Z,15.20
2018-03-02T04:21:18.141Z,16.90
2018-03-02T04:22:18.132Z,18.90
2018-03-02T04:23:18.180Z,17.50
2018-03-02T04:24:18.131Z,18.90
2018-03-02T04:25:18.137Z,16.40
2018-03-02T04:26:18.997Z,17.70
2018-03-02T04:27:18.133Z,18.30
2018-03-02T04:28:18.126Z,16.40
2018-03-02T04:29:18.128Z,19.20
2018-03-02T04:30:18.125Z,17.00
2018-03-02T04:31:18.138Z,19.60
2018-03-02T04:32:18.129Z,18.30
2018-03-02T04:33:18.123Z,19.30
2018-03-02T04:34:18.131Z,18.30
2018-03-02T04:35:18.148Z,18.80
2018-03-02T04:36:18.152Z,19.50
2018-03-02T04:37:18.174Z,19.10
2018-03-02T04:38:18.109Z,18.90
2018-03-02T04:39:18.112Z,17.60
2018-03-02T04:40:18.119Z,18.60
2018-03-02T04:41:18.144Z,17.90
2018-03-02T04:42:18.109Z,18.60
2018-03-02T04:43:18.112Z,18.30
2018-03-02T04:44:18.126Z,17.80
2018-03-02T04:45:18.103Z,19.90
2018-03-02T04:46:18.112Z,19.20
2018-03-02T04:47:18.119Z,17.90
2018-03-02T04:48:18.122Z,16.60
2018-03-02T04:49:18.107Z,18.50
2018-03-02T04:50:18.106Z,19.60
2018-03-02T04:51:18.095Z,19.40
2018-03-02T04:52:18.110Z,18.40
2018-03-02T04:53:18.089Z,18.40
2018-03-02T04:54:18.103Z,18.10
2018-03-02T04:55:18.094Z,18.70
2018-03-02T04:56:18.101Z,18.40
2018-03-02T04:57:18.182Z,19.80
2018-03-02T04:58:18.101Z,18.70
2018-03-02T04:59:18.080Z,17.30
2018-03-02T05:00:18.084Z,18.90
2018-03-02T05:01:18.104Z,18.10
2018-03-02T05:02:18.100Z,17.40
2018-03-02T05:03:18.095Z,18.50
2018-03-02T05:04:18.081Z,19.00
2018-03-02T05:05:18.094Z,16.30
2018-03-02T05:06:18.073Z,16.20
2018-03-02T05:07:18.076Z,18.40
2018-03-02T05:08:18.075Z,18.50
2018-03-02T05:09:18.091Z,19.30
2018-03-02T05:10:18.079Z,17.60
2018-03-02T05:11:18.104Z,16.00
2018-03-02T05:12:18.066Z,16.90
2018-03-02T05:13:18.096Z,17.50
2018-03-02T05:14:18.066Z,17.80
2018-03-02T05:15:18.074Z,19.40
2018-03-02T05:16:18.067Z,19.40
2018-03-02T05:17:18.063Z,19.70
2018-03-02T05:18:18.061Z,19.60
2018-03-02T05:19:18.065Z,19.90
2018-03-02T05:20:18.071Z,19.30
2018-03-02T05:21:18.057Z,16.40
2018-03-02T05:22:18.052Z,17.00
2018-03-02T05:23:18.982Z,19.10
2018-03-02T05:24:18.052Z,17.90
2018-03-02T05:25:18.067Z,19.60
2018-03-02T05:26:18.054Z,19.80
2018-03-02T05:27:18.050Z,18.60
2018-03-02T05:28:18.048Z,18.80
2018-03-02T05:29:18.042Z,19.30
2018-03-02T05:30:18.045Z,20.00
2018-03-02T05:31:18.036Z,17.30
2018-03-02T05:32:18.051Z,18.40
2018-03-02T05:33:18.045Z,18.70
2018-03-02T05:34:18.042Z,19.20
2018-03-02T05:35:18.041Z,18.10
2018-03-02T05:36:18.025Z,19.20
2018-03-02T05:37:18.034Z,18.70
2018-03-02T05:38:18.044Z,19.70
2018-03-02T05:39:18.036Z,20.60
2018-03-02T05:40:18.029Z,19.40
2018-03-02T05:41:18.029Z,19.60
2018-03-02T05:42:18.022Z,21.30
2018-03-02T05:43:18.025Z,20.20
2018-03-02T05:44:18.081Z,20.10
2018-03-02T05:45:18.035Z,21.00
2018-03-02T05:46:18.039Z,20.20
2018-03-02T05:47:18.019Z,20.20
2018-03-02T05:48:18.026Z,20.90
2018-03-02T05:49:18.018Z,19.90
2018-03-02T05:50:18.019Z,19.10
2018-03-02T05:51:18.029Z,21.00
2018-03-02T05:52:18.021Z,18.00
2018-03-02T05:53:18.026Z,20.10
2018-03-02T05:54:18.011Z,20.10
2018-03-02T05:55:18.013Z,19.40
2018-03-02T05:56:18.010Z,19.20
2018-03-02T05:57:18.018Z,19.20
2018-03-02T05:58:18.011Z,18.70
2018-03-02T05:59:18.005Z,17.90
2018-03-02T06:00:18.024Z,18.70
2018-03-02T06:01:17.988Z,19.80
2018-03-02T06:02:17.994Z,20.40
2018-03-02T06:03:18.004Z,17.90
2018-03-02T06:04:18.004Z,17.80
2018-03-02T06:05:17.997Z,19.40
2018-03-02T06:06:17.993Z,20.00
2018-03-02T06:07:18.007Z,18.20
2018-03-02T06:08:17.990Z,17.40
2018-03-02T06:09:17.987Z,16.90
2018-03-02T06:10:18.048Z,20.40
2018-03-02T06:11:17.990Z,18.20
2018-03-02T06:12:17.983Z,19.90
2018-03-02T06:13:17.983Z,18.50
2018-03-02T06:14:17.971Z,20.20
2018-03-02T06:15:17.976Z,21.00
2018-03-02T06:16:17.991Z,18.90
2018-03-02T06:17:17.977Z,20.20
2018-03-02T06:18:17.970Z,21.30
2018-03-02T06:19:17.989Z,21.30
2018-03-02T06:20:17.985Z,19.50
2018-03-02T06:21:17.970Z,18.10
2018-03-02T06:22:17.963Z,15.10
2018-03-02T06:23:18.017Z,20.30
2018-03-02T06:24:17.962Z,19.30
2018-03-02T06:25:17.966Z,21.80
2018-03-02T06:26:17.960Z,21.10
2018-03-02T06:27:17.954Z,21.30
2018-03-02T06:28:17.969Z,21.10
2018-03-02T06:29:17.951Z,20.90
2018-03-02T06:30:17.974Z,20.40
2018-03-02T06:31:17.958Z,20.60
2018-03-02T06:32:17.960Z,23.20
2018-03-02T06:33:17.958Z,18.50
2018-03-02T06:34:17.947Z,17.60
2018-03-02T06:35:17.985Z,20.60
2018-03-02T06:36:17.946Z,20.30
2018-03-02T06:37:17.944Z,20.20
2018-03-02T06:38:17.952Z,21.00
2018-03-02T06:39:17.944Z,19.10
2018-03-02T06:40:17.967Z,22.70
2018-03-02T06:41:18.058Z,21.10
2018-03-02T06:42:17.958Z,20.20
2018-03-02T06:43:17.931Z,19.80
2018-03-02T06:44:17.946Z,21.10
2018-03-02T06:45:17.960Z,20.70
2018-03-02T06:46:17.927Z,19.90
2018-03-02T06:47:17.972Z,19.00
2018-03-02T06:48:17.944Z,21.00
2018-03-02T06:49:17.927Z,21.30
2018-03-02T06:50:17.926Z,21.40
2018-03-02T06:51:17.956Z,21.20
2018-03-02T06:52:17.933Z,21.10
2018-03-02T06:53:17.931Z,21.10
2018-03-02T06:54:18.017Z,22.00
2018-03-02T06:55:17.922Z,21.40
2018-03-02T06:56:17.919Z,20.00
2018-03-02T06:57:17.941Z,20.40
2018-03-02T06:58:17.914Z,20.10
2018-03-02T06:59:17.913Z,20.60
2018-03-02T07:00:17.914Z,20.00
2018-03-02T07:01:17.909Z,21.00
2018-03-02T07:02:17.926Z,20.50
2018-03-02T07:03:17.935Z,20.50
2018-03-02T07:04:17.959Z,22.00
2018-03-02T07:05:17.913Z,22.00
2018-03-02T07:06:17.915Z,21.40
2018-03-02T07:07:17.940Z,21.50
2018-03-02T07:08:17.919Z,21.30
2018-03-02T07:09:17.913Z,21.50
2018-03-02T07:10:17.916Z,21.20
2018-03-02T07:11:17.919Z,21.70
2018-03-02T07:12:17.916Z,21.90
2018-03-02T07:13:17.923Z,21.20
2018-03-02T07:14:17.908Z,19.00
2018-03-02T07:15:17.916Z,20.50
2018-03-02T07:16:17.913Z,20.50
2018-03-02T07:17:17.934Z,20.60
2018-03-02T07:18:17.928Z,21.40
2018-03-02T07:19:17.914Z,21.20
2018-03-02T07:20:17.976Z,20.00
2018-03-02T07:21:17.940Z,22.20
2018-03-02T07:22:17.913Z,20.70
2018-03-02T07:23:17.904Z,20.50
2018-03-02T07:24:17.903Z,22.00
2018-03-02T07:25:17.957Z,17.20
2018-03-02T07:26:17.909Z,22.10
2018-03-02T07:27:17.907Z,34.10
2018-03-02T07:28:17.917Z,19.90
2018-03-02T07:29:17.909Z,18.50
2018-03-02T07:30:17.910Z,20.10
2018-03-02T07:31:17.916Z,24.60
2018-03-02T07:32:17.902Z,24.20
2018-03-02T07:33:17.911Z,24.50
2018-03-02T07:34:17.916Z,21.90
2018-03-02T07:35:17.915Z,20.20
2018-03-02T07:36:17.912Z,22.70
2018-03-02T07:37:17.914Z,22.70
2018-03-02T07:38:18.053Z,23.60
2018-03-02T07:39:17.911Z,21.80
2018-03-02T07:40:17.996Z,24.50
2018-03-02T07:41:17.954Z,26.10
2018-03-02T07:42:17.911Z,25.30
2018-03-02T07:43:17.921Z,25.50
2018-03-02T07:44:17.937Z,25.70
2018-03-02T07:45:17.918Z,23.40
2018-03-02T07:46:17.924Z,21.20
2018-03-02T07:47:17.927Z,24.70
2018-03-02T07:48:17.935Z,26.00
2018-03-02T07:49:17.928Z,25.40
2018-03-02T07:50:17.931Z,22.80
2018-03-02T07:51:17.978Z,24.50
2018-03-02T07:52:17.957Z,23.80
2018-03-02T07:53:17.949Z,25.90
2018-03-02T07:54:18.000Z,26.50
2018-03-02T07:55:17.954Z,25.00
2018-03-02T07:56:17.956Z,26.60
2018-03-02T07:57:17.971Z,23.90
2018-03-02T07:58:18.008Z,25.40
2018-03-02T07:59:17.967Z,25.70
2018-03-02T08:00:17.986Z,26.30
2018-03-02T08:01:18.017Z,26.50
2018-03-02T08:02:17.978Z,25.00
2018-03-02T08:03:18.012Z,24.90
2018-03-02T08:04:18.165Z,26.40
2018-03-02T08:05:17.982Z,26.70
2018-03-02T08:06:17.994Z,26.90
2018-03-02T08:07:17.984Z,26.90
2018-03-02T08:08:17.997Z,27.70
2018-03-02T08:09:17.992Z,25.20
2018-03-02T08:10:18.010Z,25.60
2018-03-02T08:11:18.026Z,26.40
2018-03-02T08:12:18.032Z,27.10
2018-03-02T08:13:18.021Z,26.90
2018-03-02T08:14:18.023Z,27.70
2018-03-02T08:15:18.031Z,28.20
2018-03-02T08:16:18.069Z,25.40
2018-03-02T08:17:18.039Z,25.60
2018-03-02T08:18:18.038Z,26.50
2018-03-02T08:19:18.064Z,27.30
2018-03-02T08:20:18.052Z,25.00
2018-03-02T08:21:18.061Z,25.90
2018-03-02T08:22:18.058Z,27.40
2018-03-02T08:23:18.071Z,27.50
2018-03-02T08:24:18.071Z,27.90
2018-03-02T08:25:18.083Z,27.80
2018-03-02T08:26:18.091Z,28.00
2018-03-02T08:27:18.100Z,25.90
2018-03-02T08:28:18.092Z,26.30
2018-03-02T08:29:18.115Z,24.50
2018-03-02T08:30:18.125Z,25.20
2018-03-02T08:31:18.114Z,27.80
2018-03-02T08:32:18.132Z,27.10
2018-03-02T08:33:18.127Z,26.40
2018-03-02T08:34:18.145Z,27.50
2018-03-02T08:35:18.157Z,27.60
2018-03-02T08:36:18.154Z,26.90
2018-03-02T08:37:18.158Z,27.10
2018-03-02T08:38:18.163Z,25.90
2018-03-02T08:39:18.171Z,28.80
2018-03-02T08:40:18.180Z,27.10
2018-03-02T08:41:18.251Z,24.60
2018-03-02T08:42:18.185Z,29.30
2018-03-02T08:43:18.221Z,28.70
2018-03-02T08:44:18.203Z,23.90
2018-03-02T08:45:18.261Z,25.90
2018-03-02T08:46:18.216Z,27.30
2018-03-02T08:47:18.236Z,26.20
2018-03-02T08:48:18.227Z,27.20
2018-03-02T08:49:18.235Z,28.70
2018-03-02T08:50:18.237Z,28.40
2018-03-02T08:51:18.261Z,28.70
2018-03-02T08:52:18.262Z,29.90
2018-03-02T08:53:18.268Z,28.70
2018-03-02T08:54:18.318Z,27.20
2018-03-02T08:55:18.275Z,30.10
2018-03-02T08:56:18.292Z,25.70
2018-03-02T08:57:18.300Z,29.40
2018-03-02T08:58:18.307Z,29.60
2018-03-02T08:59:18.316Z,30.70
2018-03-02T09:00:18.317Z,29.50
2018-03-02T09:01:18.331Z,32.00
2018-03-02T09:02:18.346Z,30.10
2018-03-02T09:03:18.353Z,27.90
2018-03-02T09:04:18.356Z,26.50
2018-03-02T09:05:18.421Z,28.50
2018-03-02T09:06:18.414Z,28.50
2018-03-02T09:07:18.387Z,28.90
2018-03-02T09:08:18.515Z,27.40
2018-03-02T09:09:18.408Z,29.70
2018-03-02T09:10:18.408Z,30.00
2018-03-02T09:11:18.415Z,30.30
2018-03-02T09:12:18.425Z,31.10
2018-03-02T09:13:18.440Z,30.10
2018-03-02T09:14:18.475Z,29.60
2018-03-02T09:15:18.451Z,28.70
2018-03-02T09:16:18.489Z,32.10
2018-03-02T09:17:18.489Z,30.80
2018-03-02T09:18:18.477Z,29.00
2018-03-02T09:19:18.485Z,25.80
2018-03-02T09:20:18.486Z,28.20
2018-03-02T09:21:18.517Z,30.70
2018-03-02T09:22:18.521Z,29.60
2018-03-02T09:23:18.538Z,29.50
2018-03-02T09:24:18.540Z,28.20
2018-03-02T09:25:18.554Z,29.90
2018-03-02T09:26:18.553Z,30.80
2018-03-02T09:27:18.575Z,28.40
2018-03-02T09:28:18.583Z,29.00
2018-03-02T09:29:18.608Z,29.30
2018-03-02T09:30:18.601Z,28.60
2018-03-02T09:31:18.611Z,30.20
2018-03-02T09:32:18.612Z,30.70
2018-03-02T09:33:18.617Z,30.50
2018-03-02T09:34:18.643Z,27.80
2018-03-02T09:35:18.640Z,29.80
2018-03-02T09:36:18.676Z,31.50
2018-03-02T09:37:18.689Z,28.80
2018-03-02T09:38:18.683Z,28.80
2018-03-02T09:39:18.694Z,29.20
2018-03-02T09:40:18.704Z,33.30
2018-03-02T09:41:18.698Z,30.50
2018-03-02T09:42:18.705Z,29.70
2018-03-02T09:43:18.762Z,31.30
2018-03-02T09:44:18.727Z,30.30
2018-03-02T09:45:18.741Z,28.90
2018-03-02T09:46:18.740Z,27.70
2018-03-02T09:47:18.745Z,26.70
2018-03-02T09:48:18.762Z,31.20
2018-03-02T09:49:18.767Z,30.10
2018-03-02T09:50:18.765Z,28.50
2018-03-02T09:51:18.778Z,25.60
2018-03-02T09:52:18.848Z,28.60
2018-03-02T09:53:18.790Z,29.00
2018-03-02T09:54:18.813Z,29.50
2018-03-02T09:55:18.860Z,30.90
2018-03-02T09:56:18.858Z,31.10
2018-03-02T09:57:18.840Z,27.70
2018-03-02T09:58:18.978Z,30.20
2018-03-02T09:59:18.868Z,30.80
2018-03-02T10:00:18.859Z,32.10
2018-03-02T10:01:18.876Z,31.00
2018-03-02T10:02:18.889Z,31.50
2018-03-02T10:03:18.895Z,31.60
2018-03-02T10:04:18.917Z,30.40
2018-03-02T10:05:18.927Z,27.20
2018-03-02T10:06:19.068Z,29.00
2018-03-02T10:07:18.954Z,31.20
2018-03-02T10:08:18.939Z,32.00
2018-03-02T10:09:18.961Z,30.10
2018-03-02T10:10:18.989Z,29.70
2018-03-02T10:11:18.981Z,31.60
2018-03-02T10:12:19.015Z,31.00
2018-03-02T10:13:19.032Z,32.30
2018-03-02T10:14:19.014Z,31.60
2018-03-02T10:15:19.042Z,31.80
2018-03-02T10:16:19.051Z,29.90
2018-03-02T10:17:19.103Z,29.00
2018-03-02T10:18:19.084Z,29.80
2018-03-02T10:19:19.074Z,32.00
2018-03-02T10:20:19.109Z,30.60
2018-03-02T10:21:19.163Z,30.60
2018-03-02T10:22:19.121Z,31.10
2018-03-02T10:23:19.195Z,30.10
2018-03-02T10:24:19.140Z,30.90
2018-03-02T10:25:19.141Z,31.30
2018-03-02T10:26:19.177Z,30.00
2018-03-02T10:27:19.180Z,32.80
2018-03-02T10:28:19.174Z,33.30
2018-03-02T10:29:19.193Z,32.50
2018-03-02T10:30:19.210Z,29.60
2018-03-02T10:31:19.230Z,30.80
2018-03-02T10:32:19.226Z,30.80
2018-03-02T10:33:19.239Z,30.40
2018-03-02T10:34:19.243Z,30.30
2018-03-02T10:35:19.272Z,33.50
2018-03-02T10:36:19.279Z,31.80
2018-03-02T10:37:19.333Z,31.90
2018-03-02T10:38:19.289Z,33.60
2018-03-02T10:39:19.317Z,33.50
2018-03-02T10:40:19.355Z,34.80
2018-03-02T10:41:19.370Z,32.00
2018-03-02T10:42:19.408Z,30.80
2018-03-02T10:43:19.379Z,31.70
2018-03-02T10:44:19.383Z,30.00
2018-03-02T10:45:19.394Z,31.60
2018-03-02T10:46:19.396Z,32.20
2018-03-02T10:47:19.430Z,31.40
2018-03-02T10:48:19.428Z,31.20
2018-03-02T10:49:19.426Z,30.10
2018-03-02T10:50:19.440Z,29.60
2018-03-02T10:51:19.460Z,30.10
2018-03-02T10:52:19.475Z,30.60
2018-03-02T10:53:19.506Z,32.10
2018-03-02T10:54:19.504Z,31.30
2018-03-02T10:55:19.511Z,30.20
2018-03-02T10:56:19.538Z,30.70
2018-03-02T10:57:19.531Z,33.50
2018-03-02T10:58:19.541Z,32.70
2018-03-02T10:59:19.550Z,30.90
2018-03-02T11:00:19.594Z,31.70
2018-03-02T11:01:19.632Z,30.70
2018-03-02T11:02:19.591Z,30.30
2018-03-02T11:03:19.599Z,30.20
2018-03-02T11:04:19.628Z,31.00
2018-03-02T11:05:19.623Z,33.70
2018-03-02T11:06:19.686Z,30.70
2018-03-02T11:07:19.709Z,32.40
2018-03-02T11:08:19.829Z,32.40
2018-03-02T11:09:19.691Z,32.70
2018-03-02T11:10:19.696Z,32.90
2018-03-02T11:11:19.737Z,30.20
2018-03-02T11:12:19.735Z,27.40
2018-03-02T11:13:19.869Z,30.80
2018-03-02T11:14:19.743Z,25.40
2018-03-02T11:15:19.784Z,29.50
2018-03-02T11:16:19.841Z,32.80
2018-03-02T11:17:19.775Z,33.30
2018-03-02T11:18:19.801Z,31.10
2018-03-02T11:19:19.800Z,32.70
2018-03-02T11:20:19.812Z,33.40
2018-03-02T11:21:19.868Z,34.70
2018-03-02T11:22:19.833Z,32.00
2018-03-02T11:23:19.911Z,32.00
2018-03-02T11:24:19.867Z,32.00
2018-03-02T11:25:19.897Z,29.60
2018-03-02T11:26:19.897Z,30.90
2018-03-02T11:27:19.908Z,29.70
2018-03-02T11:28:19.929Z,30.70
2018-03-02T11:29:19.934Z,32.10
2018-03-02T11:30:19.948Z,31.70
2018-03-02T11:31:19.960Z,33.40
2018-03-02T11:32:20.010Z,30.50
2018-03-02T11:33:19.984Z,30.60
2018-03-02T11:34:20.012Z,33.70
2018-03-02T11:35:20.032Z,30.80
2018-03-02T11:36:20.113Z,29.60
2018-03-02T11:37:20.032Z,30.90
2018-03-02T11:38:20.050Z,32.80
2018-03-02T11:39:20.240Z,33.90
2018-03-02T11:40:20.079Z,32.80
2018-03-02T11:41:20.082Z,32.20
2018-03-02T11:42:20.112Z,31.80
2018-03-02T11:43:20.119Z,32.10
2018-03-02T11:44:20.123Z,32.20
2018-03-02T11:45:20.136Z,32.80
2018-03-02T11:46:20.151Z,31.50
2018-03-02T11:47:20.169Z,32.40
2018-03-02T11:48:20.183Z,31.60
2018-03-02T11:49:20.195Z,30.60
2018-03-02T11:50:20.205Z,28.70
2018-03-02T11:51:20.234Z,31.60
2018-03-02T11:52:20.233Z,37.50
2018-03-02T11:53:20.247Z,30.20
2018-03-02T11:54:20.264Z,33.00
2018-03-02T11:55:20.285Z,32.90
2018-03-02T11:56:20.293Z,31.40
2018-03-02T11:57:20.302Z,31.70
2018-03-02T11:58:20.312Z,30.70
2018-03-02T11:59:20.323Z,31.40
2018-03-02T12:00:20.351Z,31.40
2018-03-02T12:01:20.349Z,32.80
2018-03-02T12:02:20.352Z,32.50
2018-03-02T12:03:20.387Z,32.30
2018-03-02T12:04:20.413Z,32.50
2018-03-02T12:05:20.398Z,32.40
2018-03-02T12:06:20.418Z,33.10
2018-03-02T12:07:20.427Z,34.70
2018-03-02T12:08:20.437Z,32.50
2018-03-02T12:09:20.492Z,30.50
2018-03-02T12:10:20.461Z,33.20
2018-03-02T12:11:20.612Z,34.60
2018-03-02T12:12:20.509Z,34.60
2018-03-02T12:13:20.508Z,32.70
2018-03-02T12:14:20.532Z,32.10
2018-03-02T12:15:20.552Z,32.10
2018-03-02T12:16:20.546Z,33.00
2018-03-02T12:17:20.553Z,32.90
2018-03-02T12:18:20.579Z,32.10
2018-03-02T12:19:20.588Z,32.70
2018-03-02T12:20:20.606Z,31.90
2018-03-02T12:21:20.714Z,31.70
2018-03-02T12:22:20.675Z,36.40
2018-03-02T12:23:20.635Z,34.90
2018-03-02T12:24:20.689Z,33.50
2018-03-02T12:25:20.670Z,34.00
2018-03-02T12:26:20.677Z,33.50
2018-03-02T12:27:20.689Z,31.90
2018-03-02T12:28:20.712Z,33.60
2018-03-02T12:29:20.739Z,33.60
2018-03-02T12:30:20.737Z,32.40
2018-03-02T12:31:20.849Z,31.40
2018-03-02T12:32:20.765Z,33.30
2018-03-02T12:33:20.764Z,33.10
2018-03-02T12:34:20.787Z,32.50
2018-03-02T12:35:20.801Z,33.50
2018-03-02T12:36:21.544Z,33.80
2018-03-02T12:37:20.892Z,34.90
2018-03-02T12:38:20.862Z,33.00
2018-03-02T12:39:20.848Z,30.90
2018-03-02T12:40:20.915Z,31.70
2018-03-02T12:41:20.879Z,30.30
2018-03-02T12:42:20.917Z,34.30
2018-03-02T12:43:20.914Z,34.50
2018-03-02T12:44:20.929Z,35.90
2018-03-02T12:45:20.940Z,34.70
2018-03-02T12:46:20.958Z,33.90
2018-03-02T12:47:20.974Z,34.70
2018-03-02T12:48:20.984Z,34.10
2018-03-02T12:49:21.058Z,34.90
2018-03-02T12:50:21.023Z,32.60
2018-03-02T12:51:21.025Z,32.10
2018-03-02T12:52:21.046Z,31.80